Terminal Aerodrome Forecast
Issued by NWS

Home | Current Version | Previous Version | Text Only | Print | Product List | Glossary On
Versions: 1 2 3 4 5 6 7 8 9 10 11 12 13 14 15 16 17 18 19 20 21 22 23 24 25 26 27 28 29 30
000
FTUS43 KDVN 190522
TAFCID
TAF
KCID 190522Z 1906/2006 18008KT 1/4SM FZFG VV001
      TEMPO 1906/1910 1SM BR OVC002
     FM191400 14006KT 2SM BR OVC007
     FM192000 10005KT 1SM -RADZ OVC005=

USA.gov is the U.S. government's official web portal to all federal, state and local government web resources and services.